Time;durP1;ratioP1;P1;durP2;ratioP2;P2;SDS_P1;SDS_P2;PMS_P1;PMS_P2;Temp;Humidity;BMP_temperature;BMP_pressure;BME280_temperature;BME280_humidity;BME280_pressure;Samples;Min_cycle;Max_cycle;Signal;HPM_P1;HPM_P2
2021/04/26 00:01:01;;;;;;;7.63;6.70;;;;;;;10.78;61.72;94865.41;5114133;28;20544;-75
2021/04/26 00:03:27;;;;;;;8.77;5.77;;;;;;;10.82;62.25;94870.25;5114197;28;21049;-75
2021/04/26 00:05:54;;;;;;;6.20;5.60;;;;;;;10.77;61.43;94867.22;5114252;28;20468;-75
2021/04/26 00:08:21;;;;;;;9.17;6.50;;;;;;;10.81;61.84;94867.78;5114259;28;20480;-74
2021/04/26 00:10:47;;;;;;;6.43;5.63;;;;;;;10.86;61.09;94871.66;5113825;28;20498;-74
2021/04/26 00:13:13;;;;;;;9.47;5.97;;;;;;;10.84;62.08;94878.00;5113778;28;20499;-75
2021/04/26 00:15:40;;;;;;;6.87;5.83;;;;;;;10.93;61.09;94877.19;5114311;28;20445;-75
2021/04/26 00:18:06;;;;;;;6.30;5.60;;;;;;;11.01;60.50;94881.81;5114067;28;20456;-75
2021/04/26 00:20:33;;;;;;;6.80;6.10;;;;;;;11.05;60.55;94885.84;5113914;28;20441;-75
2021/04/26 00:23:01;;;;;;;6.20;5.60;;;;;;;11.05;60.49;94883.22;5077787;28;21086;-76
2021/04/26 00:25:28;;;;;;;11.00;7.43;;;;;;;11.00;60.28;94886.22;5113946;28;20441;-76
2021/04/26 00:27:55;;;;;;;9.43;6.20;;;;;;;11.01;60.83;94885.28;5094782;28;20942;-75
2021/04/26 00:30:23;;;;;;;10.27;6.43;;;;;;;10.89;61.16;94880.22;5113198;28;20463;-77
2021/04/26 00:32:51;;;;;;;10.70;6.87;;;;;;;10.85;61.67;94890.16;5113622;28;20936;-75
2021/04/26 00:35:18;;;;;;;11.03;7.43;;;;;;;10.83;61.01;94886.84;5113295;27;20517;-75
2021/04/26 00:37:46;;;;;;;7.03;5.23;;;;;;;10.86;61.31;94891.81;5113586;28;20804;-75
2021/04/26 00:40:14;;;;;;;14.03;6.50;;;;;;;10.85;60.72;94895.41;5114060;28;20451;-76
2021/04/26 00:42:40;;;;;;;6.40;5.77;;;;;;;10.75;61.41;94898.00;5094405;28;20449;-76
2021/04/26 00:45:10;;;;;;;7.13;6.30;;;;;;;10.78;60.80;94894.28;5113495;28;20436;-75
2021/04/26 00:47:37;;;;;;;12.80;6.10;;;;;;;10.80;61.85;94902.84;5113227;28;20442;-75
2021/04/26 00:50:05;;;;;;;6.07;5.47;;;;;;;10.77;60.92;94909.19;5113619;28;20452;-75
2021/04/26 00:52:32;;;;;;;7.60;5.50;;;;;;;10.82;61.55;94914.06;5113860;28;20442;-75
2021/04/26 00:54:58;;;;;;;7.67;6.27;;;;;;;10.83;61.29;94913.09;5113261;28;20485;-75
2021/04/26 00:57:26;;;;;;;23.53;6.43;;;;;;;10.80;61.37;94902.84;5113336;28;20518;-75
2021/04/26 00:59:52;;;;;;;10.00;6.57;;;;;;;10.76;61.08;94902.28;5113144;28;20502;-75
2021/04/26 01:02:19;;;;;;;7.53;6.60;;;;;;;10.68;61.94;94902.09;5094286;28;20858;-76
2021/04/26 01:04:45;;;;;;;12.03;8.20;;;;;;;10.69;61.05;94921.28;5113567;28;20504;-75
2021/04/26 01:07:12;;;;;;;7.00;6.17;;;;;;;10.70;61.43;94923.00;5113415;28;20446;-76
2021/04/26 01:09:38;;;;;;;7.30;6.67;;;;;;;10.74;61.62;94932.25;5113211;28;20446;-76
2021/04/26 01:12:12;;;;;;;11.23;6.83;;;;;;;10.79;62.02;94924.81;5113104;28;20439;-75
2021/04/26 01:14:43;;;;;;;7.07;6.00;;;;;;;10.79;60.79;94925.66;5113186;28;20488;-75
2021/04/26 01:17:13;;;;;;;12.53;6.60;;;;;;;10.83;61.46;94929.66;5113488;28;20453;-76
2021/04/26 01:20:16;;;;;;;7.17;6.33;;;;;;;10.84;61.08;94930.50;5113456;28;20472;-76
2021/04/26 01:23:16;;;;;;;8.33;6.53;;;;;;;10.84;60.64;94930.50;5030313;28;20457;-76
2021/04/26 01:25:45;;;;;;;9.23;6.27;;;;;;;10.85;60.47;94935.63;4971568;28;20455;-75
2021/04/26 01:28:28;;;;;;;11.30;7.57;;;;;;;10.88;60.40;94939.78;4971472;28;20459;-75
2021/04/26 01:31:00;;;;;;;7.23;6.20;;;;;;;10.86;61.04;94936.44;4971495;28;20479;-76
2021/04/26 01:33:31;;;;;;;11.67;7.10;;;;;;;10.84;60.65;94946.25;4971582;28;20833;-76
2021/04/26 01:36:03;;;;;;;9.50;6.73;;;;;;;10.80;61.54;94944.84;4971131;28;20889;-75
2021/04/26 01:38:33;;;;;;;9.10;5.70;;;;;;;10.76;61.76;94933.78;4971574;28;20451;-76
2021/04/26 01:41:00;;;;;;;9.77;6.30;;;;;;;10.73;60.88;94936.69;4971483;28;20503;-75
2021/04/26 01:43:28;;;;;;;12.57;6.87;;;;;;;10.71;62.15;94935.16;4974954;28;20526;-76
2021/04/26 01:45:57;;;;;;;9.77;6.60;;;;;;;10.65;62.00;94930.38;4975109;28;20458;-75
2021/04/26 01:48:27;;;;;;;7.93;6.50;;;;;;;10.49;62.37;94925.63;4974841;28;20462;-75
2021/04/26 01:50:55;;;;;;;13.47;8.17;;;;;;;10.34;62.64;94929.50;4975225;28;20457;-76
2021/04/26 01:53:22;;;;;;;8.50;5.90;;;;;;;10.34;62.63;94925.09;4974822;28;20459;-76
2021/04/26 01:55:49;;;;;;;7.40;6.20;;;;;;;10.33;63.12;94930.47;4974907;28;20847;-76
2021/04/26 01:58:16;;;;;;;7.30;5.70;;;;;;;10.30;63.37;94928.09;4974852;28;20495;-75
2021/04/26 02:00:43;;;;;;;9.20;6.83;;;;;;;10.27;63.61;94926.56;5052844;28;20446;-75
2021/04/26 02:03:10;;;;;;;10.20;6.73;;;;;;;10.25;63.30;94918.00;5099517;28;20445;-76
2021/04/26 02:05:37;;;;;;;8.43;5.67;;;;;;;10.23;63.41;94925.16;5116320;28;20531;-75
2021/04/26 02:08:06;;;;;;;9.73;6.20;;;;;;;10.23;63.51;94925.16;5116297;28;20448;-75
2021/04/26 02:10:33;;;;;;;7.43;6.10;;;;;;;10.21;63.94;94935.78;5097210;28;20538;-76
2021/04/26 02:13:02;;;;;;;9.10;5.97;;;;;;;10.22;63.15;94944.47;5116215;28;20969;-75
2021/04/26 02:15:30;;;;;;;12.43;8.70;;;;;;;10.10;63.33;94932.31;5116067;28;20492;-75
2021/04/26 02:17:57;;;;;;;13.47;6.50;;;;;;;10.08;63.66;94931.63;5116342;28;20810;-76
2021/04/26 02:20:23;;;;;;;7.00;5.80;;;;;;;10.07;63.82;94930.78;5115974;28;20444;-75
2021/04/26 02:22:51;;;;;;;8.17;6.63;;;;;;;10.05;63.29;94931.88;5116428;28;20444;-76
2021/04/26 02:25:19;;;;;;;10.20;6.70;;;;;;;10.05;63.80;94937.13;5079981;28;20502;-76
2021/04/26 02:27:47;;;;;;;8.10;6.50;;;;;;;10.01;63.43;94926.06;5115959;28;20452;-76
2021/04/26 02:30:15;;;;;;;7.43;6.40;;;;;;;10.03;63.68;94926.75;5116455;28;20797;-76
2021/04/26 02:32:48;;;;;;;13.70;6.87;;;;;;;10.01;63.88;94926.06;5116084;28;20444;-76
2021/04/26 02:35:20;;;;;;;9.67;5.73;;;;;;;9.96;64.04;94922.16;5116156;28;20536;-75
2021/04/26 02:37:52;;;;;;;13.03;6.70;;;;;;;9.87;64.43;94924.56;5115946;28;20448;-76
2021/04/26 02:40:21;;;;;;;9.30;6.10;;;;;;;9.85;64.14;94926.50;5080102;28;20449;-76
2021/04/26 02:42:49;;;;;;;6.67;5.97;;;;;;;9.74;64.47;94928.31;5115882;28;20798;-76
2021/04/26 02:45:20;;;;;;;6.90;5.93;;;;;;;9.72;64.65;94933.66;5116124;28;20476;-76
2021/04/26 02:47:47;;;;;;;8.03;6.37;;;;;;;9.71;64.74;94928.56;5116024;28;20531;-76
2021/04/26 02:50:19;;;;;;;8.67;7.10;;;;;;;9.68;64.71;94934.03;5115224;28;20484;-76
2021/04/26 02:52:47;;;;;;;8.40;6.27;;;;;;;9.56;64.91;94931.47;5115509;28;20452;-75
2021/04/26 02:55:14;;;;;;;6.70;5.50;;;;;;;9.54;65.53;94927.28;5115537;28;20490;-76
2021/04/26 02:57:42;;;;;;;12.43;6.63;;;;;;;9.54;64.94;94935.13;5113432;28;20437;-75
2021/04/26 03:00:10;;;;;;;6.40;5.57;;;;;;;9.54;64.74;94932.50;5115303;28;20449;-76
2021/04/26 03:02:38;;;;;;;8.80;5.87;;;;;;;9.55;65.05;94934.22;5079632;28;20449;-75
2021/04/26 03:05:07;;;;;;;7.83;6.03;;;;;;;9.52;64.91;94932.63;5115624;28;20453;-76
2021/04/26 03:07:35;;;;;;;7.50;6.80;;;;;;;9.52;65.08;94935.25;5116001;28;20445;-76
2021/04/26 03:10:04;;;;;;;7.47;6.50;;;;;;;9.48;65.27;94938.25;5115516;28;20471;-76
2021/04/26 03:12:32;;;;;;;10.00;7.00;;;;;;;9.46;65.08;94946.22;5115498;28;20448;-76
2021/04/26 03:15:01;;;;;;;7.10;6.40;;;;;;;9.40;65.54;94948.50;5115155;28;21048;-75
2021/04/26 03:17:28;;;;;;;7.67;6.37;;;;;;;9.37;65.71;94946.97;5115378;28;21251;-75
2021/04/26 03:19:55;;;;;;;10.83;6.67;;;;;;;9.30;65.64;94944.00;5113052;28;20505;-76
2021/04/26 03:22:23;;;;;;;7.67;6.33;;;;;;;9.22;65.82;94948.16;5115249;28;20540;-76
2021/04/26 03:24:50;;;;;;;9.03;6.83;;;;;;;9.19;65.97;94957.09;5113904;28;20452;-76
2021/04/26 03:27:17;;;;;;;8.43;6.33;;;;;;;9.03;66.34;94967.09;5078605;28;20985;-76
2021/04/26 03:29:45;;;;;;;10.87;6.63;;;;;;;8.96;66.59;94958.91;5113894;28;21019;-76
2021/04/26 03:32:14;;;;;;;11.20;5.80;;;;;;;8.93;66.92;94968.75;5114459;28;20451;-76
2021/04/26 03:34:41;;;;;;;8.30;7.50;;;;;;;8.91;67.24;94978.50;5113831;28;20501;-76
2021/04/26 03:37:09;;;;;;;10.80;7.10;;;;;;;8.95;67.43;94979.94;5113694;28;20966;-76
2021/04/26 03:39:35;;;;;;;7.20;6.50;;;;;;;9.00;67.36;94985.66;5114238;28;20447;-77
2021/04/26 03:42:02;;;;;;;12.63;6.50;;;;;;;9.05;67.35;94987.94;5103238;28;20458;-76
2021/04/26 03:44:28;;;;;;;11.67;6.23;;;;;;;9.06;66.85;94979.97;5093642;28;20453;-77
2021/04/26 03:46:57;;;;;;;7.27;6.07;;;;;;;9.08;67.38;94980.66;5114484;28;20443;-76
2021/04/26 03:49:25;;;;;;;8.90;7.00;;;;;;;9.19;67.05;94977.22;5094254;28;20810;-75
2021/04/26 03:51:53;;;;;;;10.80;5.77;;;;;;;9.26;67.25;94984.50;5095686;28;20437;-76
2021/04/26 03:54:20;;;;;;;9.93;6.60;;;;;;;9.42;67.08;94991.97;5114638;28;20486;-76
2021/04/26 03:56:47;;;;;;;9.47;6.37;;;;;;;9.68;66.33;94987.28;5114913;28;20432;-76
2021/04/26 03:59:14;;;;;;;8.70;7.07;;;;;;;9.99;65.53;94980.41;5114876;28;20439;-76
2021/04/26 04:01:40;;;;;;;6.97;6.10;;;;;;;10.33;63.32;94986.38;5114362;28;20445;-77
2021/04/26 04:04:07;;;;;;;6.33;5.73;;;;;;;10.68;62.27;94980.81;5114298;28;20506;-76
2021/04/26 04:06:34;;;;;;;12.20;5.77;;;;;;;11.04;61.16;95000.53;5113788;28;20449;-76
2021/04/26 04:09:01;;;;;;;8.67;6.20;;;;;;;11.46;59.22;94989.94;5114919;28;20443;-76
2021/04/26 04:11:27;;;;;;;10.33;6.60;;;;;;;11.99;58.50;94984.44;5114154;28;20449;-76
2021/04/26 04:13:54;;;;;;;8.47;7.17;;;;;;;12.61;55.50;94989.28;5114475;28;20567;-76
2021/04/26 04:16:20;;;;;;;7.37;5.23;;;;;;;13.03;53.38;94997.69;5113832;28;20442;-77
2021/04/26 04:18:47;;;;;;;8.53;6.20;;;;;;;13.31;53.03;94998.63;5078072;28;20430;-79
2021/04/26 04:21:13;;;;;;;7.30;5.70;;;;;;;13.91;63.80;95009.59;5114627;28;20424;-79
2021/04/26 04:23:41;;;;;;;9.47;6.30;;;;;;;14.39;57.08;95012.88;5095303;28;20438;-79
2021/04/26 04:26:07;;;;;;;9.83;6.10;;;;;;;14.70;49.13;95018.63;5114012;28;20459;-77
2021/04/26 04:28:35;;;;;;;7.73;5.90;;;;;;;14.85;48.27;95012.69;5113763;28;21000;-76
2021/04/26 04:31:02;;;;;;;6.43;5.80;;;;;;;15.00;47.30;94999.72;5114090;28;20436;-76
2021/04/26 04:33:28;;;;;;;9.70;6.47;;;;;;;15.08;47.47;95007.72;5113672;28;20442;-77
2021/04/26 04:35:56;;;;;;;7.17;6.50;;;;;;;15.09;46.55;95008.56;5115146;28;20546;-77
2021/04/26 04:38:23;;;;;;;7.73;6.33;;;;;;;15.39;46.70;95012.56;5116243;28;20445;-75
2021/04/26 04:40:50;;;;;;;16.97;6.40;;;;;;;15.50;45.68;95013.09;5113861;28;20444;-75
2021/04/26 04:43:16;;;;;;;12.83;6.80;;;;;;;15.63;45.47;95010.06;5113392;28;20458;-74
2021/04/26 04:45:43;;;;;;;7.73;6.97;;;;;;;15.86;44.93;95010.31;5113448;28;20449;-76
2021/04/26 04:48:09;;;;;;;8.23;6.57;;;;;;;15.97;44.96;95015.34;5113397;28;20858;-74
2021/04/26 04:50:36;;;;;;;8.90;6.43;;;;;;;16.22;44.81;95007.50;5112962;28;20942;-74
2021/04/26 04:53:02;;;;;;;13.17;6.83;;;;;;;16.51;44.08;95009.69;5113836;28;20824;-76
2021/04/26 04:55:29;;;;;;;10.50;6.33;;;;;;;16.75;43.16;95009.75;5113186;28;20481;-77
2021/04/26 04:57:56;;;;;;;7.70;5.90;;;;;;;17.08;42.87;95010.59;5113242;28;20456;-76
2021/04/26 05:00:23;;;;;;;7.93;6.10;;;;;;;17.27;42.30;95010.22;5113155;28;20464;-76
2021/04/26 05:02:49;;;;;;;9.40;7.20;;;;;;;17.43;42.19;95009.38;5113264;28;20500;-76
2021/04/26 05:05:16;;;;;;;8.07;6.53;;;;;;;17.67;41.54;95012.97;5112724;28;20470;-76
2021/04/26 05:07:42;;;;;;;16.13;6.93;;;;;;;17.85;41.12;95019.72;5113239;28;20431;-76
2021/04/26 05:10:09;;;;;;;8.53;6.40;;;;;;;18.06;40.70;95010.38;5113226;28;20446;-76
2021/04/26 05:12:35;;;;;;;6.80;6.10;;;;;;;18.35;40.41;95015.03;5113229;28;20971;-76
2021/04/26 05:15:04;;;;;;;7.00;6.30;;;;;;;18.39;40.25;95019.81;5112738;28;20473;-77
2021/04/26 05:17:32;;;;;;;8.63;6.20;;;;;;;18.62;39.51;95016.38;5115595;28;20439;-75
2021/04/26 05:19:59;;;;;;;10.03;5.93;;;;;;;18.93;39.00;95021.66;5080644;28;20423;-76
2021/04/26 05:22:25;;;;;;;17.63;6.80;;;;;;;19.04;38.84;95018.56;5116414;28;20498;-76
2021/04/26 05:24:53;;;;;;;7.27;6.57;;;;;;;19.21;38.69;95033.41;5116993;28;20454;-75
2021/04/26 05:27:19;;;;;;;16.50;7.00;;;;;;;19.31;38.10;95038.47;5117486;28;20883;-76
2021/04/26 05:29:45;;;;;;;20.90;9.20;;;;;;;19.32;38.13;95035.63;5116992;28;20758;-75
2021/04/26 05:32:13;;;;;;;9.70;7.27;;;;;;;19.33;38.25;95033.78;5097637;28;20452;-76
2021/04/26 05:34:40;;;;;;;9.93;7.67;;;;;;;19.42;37.82;95040.72;5116765;27;20579;-76
2021/04/26 05:37:06;;;;;;;18.20;9.10;;;;;;;19.70;38.13;95020.50;5116629;28;20538;-75
2021/04/26 05:39:32;;;;;;;16.53;8.70;;;;;;;19.93;37.25;95022.22;5116941;28;20443;-76
2021/04/26 05:41:59;;;;;;;21.80;9.80;;;;;;;20.04;37.10;95011.13;5116906;28;20449;-75
2021/04/26 05:44:25;;;;;;;21.33;9.53;;;;;;;20.02;36.85;94999.84;5116697;28;20444;-76
2021/04/26 05:46:51;;;;;;;14.87;9.30;;;;;;;20.04;36.67;94995.16;5116552;28;20463;-76
2021/04/26 05:49:18;;;;;;;12.77;9.70;;;;;;;20.02;36.93;94994.50;5116049;28;20510;-75
2021/04/26 05:51:45;;;;;;;18.87;9.97;;;;;;;20.03;36.61;95004.16;5116593;28;20429;-76
2021/04/26 05:54:11;;;;;;;13.37;9.17;;;;;;;20.09;36.34;95000.75;5116421;28;20481;-75
2021/04/26 05:56:38;;;;;;;15.90;10.17;;;;;;;20.27;36.49;95008.34;5097487;28;20445;-76
2021/04/26 05:59:04;;;;;;;13.87;9.77;;;;;;;20.40;36.51;95006.69;5116177;28;20452;-76
2021/04/26 06:01:31;;;;;;;14.87;10.10;;;;;;;20.69;35.64;95012.94;5116105;28;20555;-76
2021/04/26 06:03:57;;;;;;;19.70;10.93;;;;;;;20.76;37.44;95008.50;5116301;28;20446;-73
2021/04/26 06:06:27;;;;;;;25.53;12.10;;;;;;;20.90;41.33;94999.63;5080166;28;20445;-75
2021/04/26 06:08:53;;;;;;;18.30;9.57;;;;;;;21.30;40.74;95000.00;5116761;28;20530;-77
2021/04/26 06:11:19;;;;;;;15.30;10.87;;;;;;;21.19;35.16;94992.50;5116380;28;20493;-75
2021/04/26 06:13:46;;;;;;;21.50;10.20;;;;;;;20.79;35.31;94992.13;5116166;28;20442;-75
2021/04/26 06:16:12;;;;;;;14.27;10.47;;;;;;;20.20;36.51;94991.44;5116545;28;20440;-76
2021/04/26 06:18:38;;;;;;;11.60;10.30;;;;;;;20.07;36.91;94992.09;5116538;28;20446;-76
2021/04/26 06:21:05;;;;;;;17.93;12.30;;;;;;;20.09;36.81;95000.75;5116223;28;20453;-76
2021/04/26 06:23:32;;;;;;;13.67;11.40;;;;;;;20.15;37.23;95004.50;5115612;28;20458;-73
2021/04/26 06:25:58;;;;;;;14.23;9.97;;;;;;;20.43;36.41;95005.47;5115809;28;20465;-74
2021/04/26 06:28:26;;;;;;;22.70;10.80;;;;;;;20.46;36.36;95013.09;5114454;28;20450;-74
2021/04/26 06:30:52;;;;;;;19.20;11.30;;;;;;;20.16;36.69;95006.13;5115652;28;20445;-75
2021/04/26 06:33:19;;;;;;;14.40;10.40;;;;;;;19.95;37.08;95004.22;5115546;28;21030;-74
2021/04/26 06:35:46;;;;;;;19.30;12.47;;;;;;;20.10;36.95;94999.72;5115598;28;20493;-76
2021/04/26 06:38:13;;;;;;;18.97;11.03;;;;;;;20.24;36.27;94998.88;5115160;28;20467;-75
2021/04/26 06:40:42;;;;;;;16.27;10.80;;;;;;;20.25;36.57;95000.53;5115345;28;20460;-75
2021/04/26 06:43:09;;;;;;;12.60;9.17;;;;;;;20.45;36.65;95006.13;5115971;28;20480;-76
2021/04/26 06:45:35;;;;;;;20.80;11.67;;;;;;;20.80;36.50;94991.09;5110748;28;20451;-76
2021/04/26 06:48:02;;;;;;;16.43;11.43;;;;;;;21.07;35.99;94999.34;5114240;28;20443;-75
2021/04/26 06:50:28;;;;;;;16.20;12.57;;;;;;;20.75;34.74;94996.19;5115174;28;20443;-75
2021/04/26 06:52:55;;;;;;;18.80;11.70;;;;;;;20.81;35.10;94991.94;5095709;28;20451;-74
2021/04/26 06:55:23;;;;;;;16.90;9.77;;;;;;;20.99;35.33;94981.63;5114994;28;20486;-76
2021/04/26 06:57:50;;;;;;;15.90;11.97;;;;;;;20.98;34.68;94980.81;5093655;28;20963;-74
2021/04/26 07:00:18;;;;;;;15.33;9.97;;;;;;;20.99;35.27;94971.78;5098831;28;20450;-75
2021/04/26 07:02:44;;;;;;;18.03;11.47;;;;;;;21.07;36.05;94972.66;5053286;28;20461;-74
2021/04/26 07:05:11;;;;;;;16.10;10.90;;;;;;;20.95;37.17;94973.19;5114467;28;20437;-77
2021/04/26 07:07:38;;;;;;;18.70;10.83;;;;;;;20.60;36.83;94982.09;5097767;28;20451;-74
2021/04/26 07:10:05;;;;;;;18.27;10.37;;;;;;;20.22;37.17;94987.56;5103623;28;20459;-74
2021/04/26 07:12:32;;;;;;;18.70;10.67;;;;;;;20.30;37.19;94984.81;5111777;28;20446;-75
2021/04/26 07:14:59;;;;;;;13.93;10.83;;;;;;;20.50;37.58;94989.56;5106927;28;20492;-74
2021/04/26 07:17:26;;;;;;;20.53;11.70;;;;;;;20.74;35.49;94989.19;5109844;28;20465;-75
2021/04/26 07:19:53;;;;;;;18.10;11.30;;;;;;;20.66;36.07;94984.81;5114683;28;20446;-74
2021/04/26 07:22:19;;;;;;;24.13;12.23;;;;;;;20.87;36.22;94969.84;5096960;28;20933;-74
2021/04/26 07:24:46;;;;;;;16.90;10.60;;;;;;;20.95;35.75;94993.72;5091907;28;20444;-75
2021/04/26 07:27:12;;;;;;;19.03;12.17;;;;;;;20.83;35.80;94982.75;5094054;28;20974;-76
2021/04/26 07:29:38;;;;;;;18.10;11.23;;;;;;;20.80;36.15;94991.09;5094433;28;20454;-76
2021/04/26 07:32:06;;;;;;;18.17;13.17;;;;;;;20.85;36.09;94995.88;5074531;28;20440;-76
2021/04/26 07:34:32;;;;;;;21.43;13.20;;;;;;;21.00;36.16;94983.28;5073780;28;20492;-76
2021/04/26 07:36:59;;;;;;;19.83;12.93;;;;;;;20.95;35.86;94985.72;5093291;28;20447;-76
2021/04/26 07:39:25;;;;;;;17.20;10.93;;;;;;;20.91;35.71;94985.28;5093165;28;20924;-76
2021/04/26 07:41:52;;;;;;;18.03;12.80;;;;;;;20.70;36.69;94993.25;5093356;28;20438;-74
2021/04/26 07:44:18;;;;;;;18.20;13.00;;;;;;;20.38;37.29;94997.19;5094563;28;20464;-74
2021/04/26 07:46:46;;;;;;;15.73;12.00;;;;;;;20.35;37.47;94990.41;5076693;28;20461;-74
2021/04/26 07:49:13;;;;;;;20.07;12.30;;;;;;;20.55;36.69;94988.00;5105151;28;20445;-73
2021/04/26 07:51:39;;;;;;;22.03;12.00;;;;;;;20.83;36.32;94987.25;5101773;28;20947;-74
2021/04/26 07:54:06;;;;;;;14.63;11.63;;;;;;;20.80;35.86;94991.09;5098709;28;20485;-74
2021/04/26 07:56:32;;;;;;;13.93;11.73;;;;;;;20.90;36.52;94982.81;5113425;28;20505;-73
2021/04/26 07:58:59;;;;;;;13.87;12.47;;;;;;;21.06;35.36;94982.53;5113130;28;20454;-74
2021/04/26 08:01:25;;;;;;;20.10;11.27;;;;;;;21.41;35.32;94970.13;5093818;28;20470;-74
2021/04/26 08:04:02;;;;;;;17.20;11.27;;;;;;;21.65;34.97;94961.63;5103814;28;20452;-74
2021/04/26 08:06:30;;;;;;;19.63;10.17;;;;;;;21.72;33.26;94961.69;5108927;28;20443;-74
2021/04/26 08:08:56;;;;;;;11.60;10.07;;;;;;;21.77;34.29;94961.91;5105924;28;20447;-74
2021/04/26 08:11:22;;;;;;;20.47;10.00;;;;;;;21.83;34.74;94957.63;5077452;28;20449;-73
2021/04/26 08:13:49;;;;;;;15.27;11.07;;;;;;;21.78;33.94;94954.72;5094410;28;20946;-74
2021/04/26 08:16:15;;;;;;;21.90;10.90;;;;;;;21.68;35.22;94955.06;5098288;28;20459;-74
2021/04/26 08:18:41;;;;;;;15.90;10.00;;;;;;;21.30;34.65;94962.63;5109319;28;20803;-75
2021/04/26 08:21:08;;;;;;;15.53;9.20;;;;;;;20.74;34.07;94967.88;5093008;28;20458;-73
2021/04/26 08:23:36;;;;;;;15.67;9.07;;;;;;;20.75;34.85;94958.03;5092685;28;20458;-74
2021/04/26 08:26:03;;;;;;;13.03;10.20;;;;;;;20.81;35.85;94957.25;5093219;28;20454;-73
2021/04/26 08:28:33;;;;;;;15.20;11.60;;;;;;;20.99;35.43;94960.28;5093116;28;20520;-74
2021/04/26 08:31:00;;;;;;;15.83;10.30;;;;;;;20.57;33.86;94966.47;5092772;28;20443;-73
2021/04/26 08:33:27;;;;;;;16.23;9.00;;;;;;;20.69;35.67;94955.09;5107611;28;20443;-74
2021/04/26 08:35:53;;;;;;;16.07;9.50;;;;;;;20.73;35.96;94960.88;5113174;28;20496;-74
2021/04/26 08:38:20;;;;;;;17.93;10.13;;;;;;;20.60;35.88;94961.59;5113236;28;20465;-74
2021/04/26 08:40:47;;;;;;;15.23;9.20;;;;;;;20.92;35.99;94962.91;5113540;28;20446;-74
2021/04/26 08:43:13;;;;;;;31.23;10.47;;;;;;;21.00;36.65;94964.63;5113179;28;20447;-74
2021/04/26 08:45:39;;;;;;;21.10;10.73;;;;;;;20.81;36.80;94954.59;5109414;28;20447;-74
2021/04/26 08:48:07;;;;;;;24.40;10.53;;;;;;;20.93;37.36;94953.06;5096717;28;20451;-73
2021/04/26 08:50:33;;;;;;;26.47;11.93;;;;;;;20.66;35.78;94960.00;5095940;28;20820;-75
2021/04/26 08:52:59;;;;;;;18.67;10.43;;;;;;;20.43;36.34;94954.84;5077555;28;20844;-74
2021/04/26 08:55:26;;;;;;;14.07;10.53;;;;;;;20.49;35.38;94963.91;5093122;28;20493;-74
2021/04/26 08:57:54;;;;;;;15.50;8.73;;;;;;;20.48;35.43;94967.59;5092757;28;20790;-77
2021/04/26 09:00:22;;;;;;;15.57;8.40;;;;;;;20.68;32.48;94960.63;5105992;28;20457;-75
2021/04/26 09:02:55;;;;;;;11.97;8.30;;;;;;;20.35;33.84;94961.09;5113270;28;20446;-75
2021/04/26 09:05:27;;;;;;;20.47;8.23;;;;;;;20.60;34.32;94960.75;5093535;28;20454;-74
